sensor_id;sensor_type;location;lat;lon;timestamp;P1;durP1;ratioP1;P2;durP2;ratioP2
29200;SDS011;16244;51.956;12.980;2022-12-07T00:01:48;4.63;;;4.43;;
29200;SDS011;16244;51.956;12.980;2022-12-07T00:04:16;4.07;;;3.87;;
29200;SDS011;16244;51.956;12.980;2022-12-07T00:06:46;3.67;;;3.53;;
29200;SDS011;16244;51.956;12.980;2022-12-07T00:09:18;2.50;;;2.40;;
29200;SDS011;16244;51.956;12.980;2022-12-07T00:11:48;2.70;;;2.60;;
29200;SDS011;16244;51.956;12.980;2022-12-07T00:14:16;2.80;;;2.70;;
29200;SDS011;16244;51.956;12.980;2022-12-07T00:16:44;3.20;;;3.10;;
29200;SDS011;16244;51.956;12.980;2022-12-07T00:19:13;3.27;;;3.17;;
29200;SDS011;16244;51.956;12.980;2022-12-07T00:21:40;3.23;;;3.13;;
29200;SDS011;16244;51.956;12.980;2022-12-07T00:24:09;3.50;;;3.40;;
29200;SDS011;16244;51.956;12.980;2022-12-07T00:26:38;3.63;;;3.33;;
29200;SDS011;16244;51.956;12.980;2022-12-07T00:29:07;3.03;;;2.93;;
29200;SDS011;16244;51.956;12.980;2022-12-07T00:31:39;3.00;;;2.90;;
29200;SDS011;16244;51.956;12.980;2022-12-07T00:34:06;2.53;;;2.43;;
29200;SDS011;16244;51.956;12.980;2022-12-07T00:36:38;3.00;;;2.90;;
29200;SDS011;16244;51.956;12.980;2022-12-07T00:39:05;4.17;;;3.53;;
29200;SDS011;16244;51.956;12.980;2022-12-07T00:41:33;3.70;;;3.50;;
29200;SDS011;16244;51.956;12.980;2022-12-07T00:44:00;3.23;;;3.13;;
29200;SDS011;16244;51.956;12.980;2022-12-07T00:46:28;3.43;;;3.33;;
29200;SDS011;16244;51.956;12.980;2022-12-07T00:48:55;4.37;;;3.80;;
29200;SDS011;16244;51.956;12.980;2022-12-07T00:51:23;3.73;;;3.53;;
29200;SDS011;16244;51.956;12.980;2022-12-07T00:53:51;4.07;;;3.77;;
29200;SDS011;16244;51.956;12.980;2022-12-07T00:56:19;3.07;;;2.93;;
29200;SDS011;16244;51.956;12.980;2022-12-07T00:58:52;3.13;;;3.03;;
29200;SDS011;16244;51.956;12.980;2022-12-07T01:01:21;3.00;;;2.90;;
29200;SDS011;16244;51.956;12.980;2022-12-07T01:03:49;3.50;;;3.33;;
29200;SDS011;16244;51.956;12.980;2022-12-07T01:06:17;3.80;;;3.50;;
29200;SDS011;16244;51.956;12.980;2022-12-07T01:08:45;4.27;;;3.97;;
29200;SDS011;16244;51.956;12.980;2022-12-07T01:11:13;4.03;;;3.80;;
29200;SDS011;16244;51.956;12.980;2022-12-07T01:13:41;5.17;;;4.77;;
29200;SDS011;16244;51.956;12.980;2022-12-07T01:16:11;4.00;;;3.80;;
29200;SDS011;16244;51.956;12.980;2022-12-07T01:18:39;5.13;;;4.77;;
29200;SDS011;16244;51.956;12.980;2022-12-07T01:21:13;4.60;;;4.27;;
29200;SDS011;16244;51.956;12.980;2022-12-07T01:23:42;5.07;;;4.67;;
29200;SDS011;16244;51.956;12.980;2022-12-07T01:26:11;5.50;;;5.10;;
29200;SDS011;16244;51.956;12.980;2022-12-07T01:28:39;6.30;;;5.70;;
29200;SDS011;16244;51.956;12.980;2022-12-07T01:31:07;4.50;;;4.20;;
29200;SDS011;16244;51.956;12.980;2022-12-07T01:33:38;5.03;;;4.53;;
29200;SDS011;16244;51.956;12.980;2022-12-07T01:36:07;6.20;;;5.00;;
29200;SDS011;16244;51.956;12.980;2022-12-07T01:38:39;5.30;;;4.90;;
29200;SDS011;16244;51.956;12.980;2022-12-07T01:41:06;5.60;;;4.97;;
29200;SDS011;16244;51.956;12.980;2022-12-07T01:43:34;5.87;;;5.27;;
29200;SDS011;16244;51.956;12.980;2022-12-07T01:46:01;7.27;;;5.73;;
29200;SDS011;16244;51.956;12.980;2022-12-07T01:48:31;5.67;;;5.20;;
29200;SDS011;16244;51.956;12.980;2022-12-07T01:51:05;5.10;;;4.70;;
29200;SDS011;16244;51.956;12.980;2022-12-07T01:53:37;8.00;;;5.60;;
29200;SDS011;16244;51.956;12.980;2022-12-07T01:56:07;8.80;;;5.80;;
29200;SDS011;16244;51.956;12.980;2022-12-07T01:58:37;6.37;;;5.37;;
29200;SDS011;16244;51.956;12.980;2022-12-07T02:01:04;11.57;;;7.30;;
29200;SDS011;16244;51.956;12.980;2022-12-07T02:03:32;10.47;;;6.50;;
29200;SDS011;16244;51.956;12.980;2022-12-07T02:06:05;9.40;;;7.10;;
29200;SDS011;16244;51.956;12.980;2022-12-07T02:08:34;9.40;;;7.73;;
29200;SDS011;16244;51.956;12.980;2022-12-07T02:11:01;13.40;;;8.37;;
29200;SDS011;16244;51.956;12.980;2022-12-07T02:13:30;12.83;;;8.73;;
29200;SDS011;16244;51.956;12.980;2022-12-07T02:16:04;14.83;;;8.97;;
29200;SDS011;16244;51.956;12.980;2022-12-07T02:18:43;11.80;;;8.53;;
29200;SDS011;16244;51.956;12.980;2022-12-07T02:21:20;13.47;;;8.57;;
29200;SDS011;16244;51.956;12.980;2022-12-07T02:24:05;13.50;;;8.70;;
29200;SDS011;16244;51.956;12.980;2022-12-07T02:30:02;12.67;;;8.13;;
29200;SDS011;16244;51.956;12.980;2022-12-07T02:32:33;14.80;;;8.60;;
29200;SDS011;16244;51.956;12.980;2022-12-07T02:35:13;17.70;;;9.57;;
29200;SDS011;16244;51.956;12.980;2022-12-07T02:37:48;17.90;;;9.23;;
29200;SDS011;16244;51.956;12.980;2022-12-07T02:40:25;16.03;;;10.20;;
29200;SDS011;16244;51.956;12.980;2022-12-07T02:42:59;16.70;;;10.53;;
29200;SDS011;16244;51.956;12.980;2022-12-07T02:45:32;18.97;;;10.70;;
29200;SDS011;16244;51.956;12.980;2022-12-07T02:48:02;23.10;;;11.57;;
29200;SDS011;16244;51.956;12.980;2022-12-07T02:50:31;20.10;;;11.87;;
29200;SDS011;16244;51.956;12.980;2022-12-07T02:52:59;21.77;;;11.47;;
29200;SDS011;16244;51.956;12.980;2022-12-07T02:55:28;23.20;;;11.80;;
29200;SDS011;16244;51.956;12.980;2022-12-07T02:58:07;27.97;;;12.03;;
29200;SDS011;16244;51.956;12.980;2022-12-07T03:00:50;23.23;;;13.40;;
29200;SDS011;16244;51.956;12.980;2022-12-07T03:03:25;21.40;;;12.13;;
29200;SDS011;16244;51.956;12.980;2022-12-07T03:05:59;22.60;;;12.10;;
29200;SDS011;16244;51.956;12.980;2022-12-07T03:08:37;23.77;;;12.20;;
29200;SDS011;16244;51.956;12.980;2022-12-07T03:11:11;25.97;;;14.17;;
29200;SDS011;16244;51.956;12.980;2022-12-07T03:13:42;25.03;;;11.80;;
29200;SDS011;16244;51.956;12.980;2022-12-07T03:16:17;22.90;;;12.77;;
29200;SDS011;16244;51.956;12.980;2022-12-07T03:18:48;32.03;;;14.57;;
29200;SDS011;16244;51.956;12.980;2022-12-07T03:21:20;25.10;;;13.17;;
29200;SDS011;16244;51.956;12.980;2022-12-07T03:23:51;34.70;;;14.90;;
29200;SDS011;16244;51.956;12.980;2022-12-07T03:26:22;28.37;;;13.93;;
29200;SDS011;16244;51.956;12.980;2022-12-07T03:28:55;26.10;;;14.00;;
29200;SDS011;16244;51.956;12.980;2022-12-07T03:31:29;32.07;;;15.13;;
29200;SDS011;16244;51.956;12.980;2022-12-07T03:34:01;31.67;;;15.07;;
29200;SDS011;16244;51.956;12.980;2022-12-07T03:36:32;27.13;;;13.50;;
29200;SDS011;16244;51.956;12.980;2022-12-07T03:39:07;31.63;;;15.50;;
29200;SDS011;16244;51.956;12.980;2022-12-07T03:41:43;21.83;;;12.60;;
29200;SDS011;16244;51.956;12.980;2022-12-07T03:44:12;30.47;;;13.90;;
29200;SDS011;16244;51.956;12.980;2022-12-07T03:46:43;26.27;;;13.23;;
29200;SDS011;16244;51.956;12.980;2022-12-07T03:49:17;31.50;;;13.87;;
29200;SDS011;16244;51.956;12.980;2022-12-07T03:51:51;30.50;;;14.47;;
29200;SDS011;16244;51.956;12.980;2022-12-07T03:54:24;29.50;;;14.13;;
29200;SDS011;16244;51.956;12.980;2022-12-07T03:56:56;34.17;;;14.80;;
29200;SDS011;16244;51.956;12.980;2022-12-07T03:59:25;32.00;;;15.30;;
29200;SDS011;16244;51.956;12.980;2022-12-07T04:01:56;33.80;;;16.10;;
29200;SDS011;16244;51.956;12.980;2022-12-07T04:04:28;26.73;;;12.90;;
29200;SDS011;16244;51.956;12.980;2022-12-07T04:06:55;25.80;;;13.43;;
29200;SDS011;16244;51.956;12.980;2022-12-07T04:09:22;28.13;;;13.17;;
29200;SDS011;16244;51.956;12.980;2022-12-07T04:11:49;34.17;;;13.57;;
29200;SDS011;16244;51.956;12.980;2022-12-07T04:14:16;27.97;;;14.03;;
29200;SDS011;16244;51.956;12.980;2022-12-07T04:16:47;27.23;;;14.53;;
29200;SDS011;16244;51.956;12.980;2022-12-07T04:19:17;26.67;;;15.00;;
29200;SDS011;16244;51.956;12.980;2022-12-07T04:21:45;24.20;;;13.13;;
29200;SDS011;16244;51.956;12.980;2022-12-07T04:24:14;26.03;;;13.67;;
29200;SDS011;16244;51.956;12.980;2022-12-07T04:26:42;26.00;;;13.17;;
29200;SDS011;16244;51.956;12.980;2022-12-07T04:29:10;29.10;;;13.80;;
29200;SDS011;16244;51.956;12.980;2022-12-07T04:31:37;29.73;;;14.60;;
29200;SDS011;16244;51.956;12.980;2022-12-07T04:34:05;29.80;;;14.63;;
29200;SDS011;16244;51.956;12.980;2022-12-07T04:36:35;23.53;;;15.10;;
29200;SDS011;16244;51.956;12.980;2022-12-07T04:39:02;27.13;;;14.63;;
29200;SDS011;16244;51.956;12.980;2022-12-07T04:41:31;28.00;;;14.60;;
29200;SDS011;16244;51.956;12.980;2022-12-07T04:43:59;27.13;;;14.37;;
29200;SDS011;16244;51.956;12.980;2022-12-07T04:46:28;28.30;;;15.20;;
29200;SDS011;16244;51.956;12.980;2022-12-07T04:48:57;25.03;;;13.43;;
29200;SDS011;16244;51.956;12.980;2022-12-07T04:51:25;28.80;;;14.37;;
29200;SDS011;16244;51.956;12.980;2022-12-07T04:53:55;24.90;;;15.13;;
29200;SDS011;16244;51.956;12.980;2022-12-07T04:56:23;32.80;;;13.53;;
29200;SDS011;16244;51.956;12.980;2022-12-07T04:58:52;27.83;;;15.43;;
29200;SDS011;16244;51.956;12.980;2022-12-07T05:01:20;28.53;;;14.20;;
29200;SDS011;16244;51.956;12.980;2022-12-07T05:03:49;28.83;;;15.50;;
29200;SDS011;16244;51.956;12.980;2022-12-07T05:06:16;25.40;;;13.60;;
29200;SDS011;16244;51.956;12.980;2022-12-07T05:08:44;26.27;;;15.53;;
29200;SDS011;16244;51.956;12.980;2022-12-07T05:11:13;28.70;;;14.97;;
29200;SDS011;16244;51.956;12.980;2022-12-07T05:14:01;26.20;;;14.90;;
29200;SDS011;16244;51.956;12.980;2022-12-07T05:16:30;29.73;;;15.63;;
29200;SDS011;16244;51.956;12.980;2022-12-07T05:18:57;29.63;;;14.93;;
29200;SDS011;16244;51.956;12.980;2022-12-07T05:21:24;29.17;;;15.70;;
29200;SDS011;16244;51.956;12.980;2022-12-07T05:23:55;29.70;;;15.60;;
29200;SDS011;16244;51.956;12.980;2022-12-07T05:26:23;31.77;;;16.00;;
29200;SDS011;16244;51.956;12.980;2022-12-07T05:28:51;33.23;;;16.20;;
29200;SDS011;16244;51.956;12.980;2022-12-07T05:31:18;42.33;;;18.60;;
29200;SDS011;16244;51.956;12.980;2022-12-07T05:33:45;35.60;;;15.70;;
29200;SDS011;16244;51.956;12.980;2022-12-07T05:36:12;32.93;;;17.03;;
29200;SDS011;16244;51.956;12.980;2022-12-07T05:38:40;36.83;;;16.40;;
29200;SDS011;16244;51.956;12.980;2022-12-07T05:41:07;45.03;;;18.80;;
29200;SDS011;16244;51.956;12.980;2022-12-07T05:43:58;41.10;;;17.93;;
29200;SDS011;16244;51.956;12.980;2022-12-07T05:46:25;41.90;;;17.50;;
29200;SDS011;16244;51.956;12.980;2022-12-07T05:48:52;41.70;;;17.97;;
29200;SDS011;16244;51.956;12.980;2022-12-07T05:51:19;41.20;;;18.67;;
29200;SDS011;16244;51.956;12.980;2022-12-07T05:53:47;42.63;;;18.00;;
29200;SDS011;16244;51.956;12.980;2022-12-07T05:56:14;41.27;;;19.07;;
29200;SDS011;16244;51.956;12.980;2022-12-07T05:58:41;46.57;;;19.23;;
29200;SDS011;16244;51.956;12.980;2022-12-07T06:01:27;50.67;;;19.97;;
29200;SDS011;16244;51.956;12.980;2022-12-07T06:03:54;45.50;;;21.27;;
29200;SDS011;16244;51.956;12.980;2022-12-07T06:06:21;46.10;;;20.57;;
29200;SDS011;16244;51.956;12.980;2022-12-07T06:08:48;32.63;;;17.07;;
29200;SDS011;16244;51.956;12.980;2022-12-07T06:11:15;41.57;;;19.50;;
29200;SDS011;16244;51.956;12.980;2022-12-07T06:14:00;38.30;;;19.13;;
29200;SDS011;16244;51.956;12.980;2022-12-07T06:16:29;44.30;;;20.23;;
29200;SDS011;16244;51.956;12.980;2022-12-07T06:18:56;42.60;;;19.20;;
29200;SDS011;16244;51.956;12.980;2022-12-07T06:21:23;39.30;;;20.23;;
29200;SDS011;16244;51.956;12.980;2022-12-07T06:23:51;45.20;;;20.87;;
29200;SDS011;16244;51.956;12.980;2022-12-07T06:26:18;38.90;;;19.63;;
29200;SDS011;16244;51.956;12.980;2022-12-07T06:28:45;43.70;;;19.43;;
29200;SDS011;16244;51.956;12.980;2022-12-07T06:31:12;45.97;;;19.07;;
29200;SDS011;16244;51.956;12.980;2022-12-07T06:33:40;39.37;;;18.17;;
29200;SDS011;16244;51.956;12.980;2022-12-07T06:36:08;41.50;;;20.23;;
29200;SDS011;16244;51.956;12.980;2022-12-07T06:38:35;46.27;;;21.20;;
29200;SDS011;16244;51.956;12.980;2022-12-07T06:41:02;43.53;;;20.00;;
29200;SDS011;16244;51.956;12.980;2022-12-07T06:43:30;42.40;;;19.20;;
29200;SDS011;16244;51.956;12.980;2022-12-07T06:45:57;38.00;;;18.37;;
29200;SDS011;16244;51.956;12.980;2022-12-07T06:48:24;39.37;;;19.13;;
29200;SDS011;16244;51.956;12.980;2022-12-07T06:50:52;44.93;;;19.70;;
29200;SDS011;16244;51.956;12.980;2022-12-07T06:53:19;40.17;;;20.07;;
29200;SDS011;16244;51.956;12.980;2022-12-07T06:55:46;36.67;;;18.80;;
29200;SDS011;16244;51.956;12.980;2022-12-07T06:58:13;37.70;;;18.63;;
29200;SDS011;16244;51.956;12.980;2022-12-07T07:00:40;38.20;;;18.97;;
29200;SDS011;16244;51.956;12.980;2022-12-07T07:03:07;46.20;;;19.60;;
29200;SDS011;16244;51.956;12.980;2022-12-07T07:05:35;35.07;;;17.90;;
29200;SDS011;16244;51.956;12.980;2022-12-07T07:08:03;34.43;;;18.10;;
29200;SDS011;16244;51.956;12.980;2022-12-07T07:10:30;47.93;;;22.80;;
29200;SDS011;16244;51.956;12.980;2022-12-07T07:12:57;44.00;;;22.03;;
29200;SDS011;16244;51.956;12.980;2022-12-07T07:15:24;40.27;;;20.20;;
29200;SDS011;16244;51.956;12.980;2022-12-07T07:17:51;40.60;;;19.77;;
29200;SDS011;16244;51.956;12.980;2022-12-07T07:20:19;34.13;;;19.37;;
29200;SDS011;16244;51.956;12.980;2022-12-07T07:22:46;37.67;;;17.53;;
29200;SDS011;16244;51.956;12.980;2022-12-07T07:25:14;31.37;;;18.63;;
29200;SDS011;16244;51.956;12.980;2022-12-07T07:27:42;34.33;;;18.17;;
29200;SDS011;16244;51.956;12.980;2022-12-07T07:30:09;34.33;;;19.73;;
29200;SDS011;16244;51.956;12.980;2022-12-07T07:32:37;35.47;;;20.17;;
29200;SDS011;16244;51.956;12.980;2022-12-07T07:35:04;36.70;;;21.40;;
29200;SDS011;16244;51.956;12.980;2022-12-07T07:37:31;31.90;;;17.80;;
29200;SDS011;16244;51.956;12.980;2022-12-07T07:39:58;32.53;;;17.10;;
29200;SDS011;16244;51.956;12.980;2022-12-07T07:42:27;28.20;;;16.83;;
29200;SDS011;16244;51.956;12.980;2022-12-07T07:44:54;28.67;;;16.93;;
29200;SDS011;16244;51.956;12.980;2022-12-07T07:47:21;31.63;;;17.10;;
29200;SDS011;16244;51.956;12.980;2022-12-07T07:49:48;29.30;;;16.03;;
29200;SDS011;16244;51.956;12.980;2022-12-07T07:52:15;29.63;;;17.10;;
29200;SDS011;16244;51.956;12.980;2022-12-07T07:54:41;34.30;;;18.23;;
29200;SDS011;16244;51.956;12.980;2022-12-07T07:57:08;31.40;;;17.43;;
29200;SDS011;16244;51.956;12.980;2022-12-07T07:59:37;32.17;;;17.77;;
29200;SDS011;16244;51.956;12.980;2022-12-07T08:02:04;33.57;;;18.13;;
29200;SDS011;16244;51.956;12.980;2022-12-07T08:04:31;35.30;;;19.83;;
29200;SDS011;16244;51.956;12.980;2022-12-07T08:06:58;35.97;;;18.40;;
29200;SDS011;16244;51.956;12.980;2022-12-07T08:09:25;31.20;;;17.70;;
29200;SDS011;16244;51.956;12.980;2022-12-07T08:11:52;32.07;;;17.90;;
29200;SDS011;16244;51.956;12.980;2022-12-07T08:14:19;29.43;;;17.37;;
29200;SDS011;16244;51.956;12.980;2022-12-07T08:16:47;34.70;;;18.37;;
29200;SDS011;16244;51.956;12.980;2022-12-07T08:19:14;27.13;;;16.23;;
29200;SDS011;16244;51.956;12.980;2022-12-07T08:21:41;24.77;;;14.63;;
29200;SDS011;16244;51.956;12.980;2022-12-07T08:24:08;27.13;;;16.80;;
29200;SDS011;16244;51.956;12.980;2022-12-07T08:26:36;34.63;;;16.90;;
29200;SDS011;16244;51.956;12.980;2022-12-07T08:29:03;23.70;;;16.40;;
29200;SDS011;16244;51.956;12.980;2022-12-07T08:31:30;27.70;;;16.43;;
29200;SDS011;16244;51.956;12.980;2022-12-07T08:33:58;25.63;;;15.13;;
29200;SDS011;16244;51.956;12.980;2022-12-07T08:36:25;27.93;;;15.17;;
29200;SDS011;16244;51.956;12.980;2022-12-07T08:38:53;27.23;;;16.13;;
29200;SDS011;16244;51.956;12.980;2022-12-07T08:41:20;35.93;;;16.33;;
29200;SDS011;16244;51.956;12.980;2022-12-07T08:43:47;22.00;;;14.67;;
29200;SDS011;16244;51.956;12.980;2022-12-07T08:46:16;22.13;;;15.47;;
29200;SDS011;16244;51.956;12.980;2022-12-07T08:48:48;21.47;;;14.73;;
29200;SDS011;16244;51.956;12.980;2022-12-07T08:51:19;28.10;;;17.20;;
29200;SDS011;16244;51.956;12.980;2022-12-07T08:53:48;18.77;;;13.30;;
29200;SDS011;16244;51.956;12.980;2022-12-07T08:56:16;16.83;;;12.17;;
29200;SDS011;16244;51.956;12.980;2022-12-07T08:58:44;15.40;;;12.20;;
29200;SDS011;16244;51.956;12.980;2022-12-07T09:01:11;16.07;;;12.00;;
29200;SDS011;16244;51.956;12.980;2022-12-07T09:03:38;17.97;;;11.10;;
29200;SDS011;16244;51.956;12.980;2022-12-07T09:06:05;15.57;;;11.50;;
29200;SDS011;16244;51.956;12.980;2022-12-07T09:08:34;17.40;;;12.47;;
29200;SDS011;16244;51.956;12.980;2022-12-07T09:11:06;17.30;;;10.63;;
29200;SDS011;16244;51.956;12.980;2022-12-07T09:13:33;10.93;;;9.83;;
29200;SDS011;16244;51.956;12.980;2022-12-07T09:16:00;17.03;;;9.50;;
29200;SDS011;16244;51.956;12.980;2022-12-07T09:18:27;12.67;;;10.30;;
29200;SDS011;16244;51.956;12.980;2022-12-07T09:20:54;10.40;;;9.30;;
29200;SDS011;16244;51.956;12.980;2022-12-07T09:23:22;11.53;;;8.77;;
29200;SDS011;16244;51.956;12.980;2022-12-07T09:25:51;10.83;;;9.03;;
29200;SDS011;16244;51.956;12.980;2022-12-07T09:28:18;9.40;;;8.43;;
29200;SDS011;16244;51.956;12.980;2022-12-07T09:30:45;13.13;;;8.33;;
29200;SDS011;16244;51.956;12.980;2022-12-07T09:33:13;12.57;;;7.47;;
29200;SDS011;16244;51.956;12.980;2022-12-07T09:35:43;9.57;;;8.10;;
29200;SDS011;16244;51.956;12.980;2022-12-07T09:38:11;11.33;;;8.60;;
29200;SDS011;16244;51.956;12.980;2022-12-07T09:40:38;9.10;;;8.20;;
29200;SDS011;16244;51.956;12.980;2022-12-07T09:43:10;7.97;;;7.27;;
29200;SDS011;16244;51.956;12.980;2022-12-07T09:45:39;17.03;;;8.47;;
29200;SDS011;16244;51.956;12.980;2022-12-07T09:48:08;10.20;;;7.37;;
29200;SDS011;16244;51.956;12.980;2022-12-07T09:50:43;6.80;;;6.27;;
29200;SDS011;16244;51.956;12.980;2022-12-07T09:53:13;14.60;;;9.33;;
29200;SDS011;16244;51.956;12.980;2022-12-07T09:55:44;12.83;;;8.70;;
29200;SDS011;16244;51.956;12.980;2022-12-07T09:58:13;14.93;;;7.67;;
29200;SDS011;16244;51.956;12.980;2022-12-07T10:00:46;7.07;;;6.57;;
29200;SDS011;16244;51.956;12.980;2022-12-07T10:03:14;7.00;;;6.47;;
29200;SDS011;16244;51.956;12.980;2022-12-07T10:05:42;7.30;;;6.37;;
29200;SDS011;16244;51.956;12.980;2022-12-07T10:08:10;6.67;;;6.17;;
29200;SDS011;16244;51.956;12.980;2022-12-07T10:10:39;11.20;;;6.80;;
29200;SDS011;16244;51.956;12.980;2022-12-07T10:13:07;9.93;;;6.13;;
29200;SDS011;16244;51.956;12.980;2022-12-07T10:15:42;7.63;;;6.43;;
29200;SDS011;16244;51.956;12.980;2022-12-07T10:18:19;7.50;;;6.10;;
29200;SDS011;16244;51.956;12.980;2022-12-07T10:21:01;9.43;;;6.33;;
29200;SDS011;16244;51.956;12.980;2022-12-07T10:23:40;7.60;;;6.83;;
29200;SDS011;16244;51.956;12.980;2022-12-07T10:26:21;6.80;;;5.30;;
29200;SDS011;16244;51.956;12.980;2022-12-07T10:28:54;6.47;;;5.97;;
29200;SDS011;16244;51.956;12.980;2022-12-07T10:31:23;7.37;;;5.30;;
29200;SDS011;16244;51.956;12.980;2022-12-07T10:33:51;5.40;;;5.10;;
29200;SDS011;16244;51.956;12.980;2022-12-07T10:36:22;6.00;;;5.60;;
29200;SDS011;16244;51.956;12.980;2022-12-07T10:38:51;4.33;;;4.03;;
29200;SDS011;16244;51.956;12.980;2022-12-07T10:41:19;6.37;;;4.63;;
29200;SDS011;16244;51.956;12.980;2022-12-07T10:43:47;4.73;;;4.53;;
29200;SDS011;16244;51.956;12.980;2022-12-07T10:49:38;4.30;;;4.10;;
29200;SDS011;16244;51.956;12.980;2022-12-07T10:52:30;4.17;;;3.87;;
29200;SDS011;16244;51.956;12.980;2022-12-07T10:55:13;5.50;;;4.97;;
29200;SDS011;16244;51.956;12.980;2022-12-07T10:57:54;3.63;;;3.43;;
29200;SDS011;16244;51.956;12.980;2022-12-07T11:00:28;5.07;;;3.80;;
29200;SDS011;16244;51.956;12.980;2022-12-07T11:03:09;4.67;;;3.50;;
29200;SDS011;16244;51.956;12.980;2022-12-07T11:05:52;4.50;;;3.50;;
29200;SDS011;16244;51.956;12.980;2022-12-07T11:08:27;3.10;;;3.00;;
29200;SDS011;16244;51.956;12.980;2022-12-07T11:11:06;3.93;;;3.73;;
29200;SDS011;16244;51.956;12.980;2022-12-07T11:13:39;4.40;;;4.10;;
29200;SDS011;16244;51.956;12.980;2022-12-07T11:16:24;4.70;;;4.27;;
29200;SDS011;16244;51.956;12.980;2022-12-07T11:19:05;6.83;;;4.57;;
29200;SDS011;16244;51.956;12.980;2022-12-07T11:21:45;7.00;;;6.40;;
29200;SDS011;16244;51.956;12.980;2022-12-07T11:24:18;7.50;;;5.57;;
29200;SDS011;16244;51.956;12.980;2022-12-07T11:26:54;9.10;;;7.43;;
29200;SDS011;16244;51.956;12.980;2022-12-07T11:29:37;6.80;;;6.20;;
29200;SDS011;16244;51.956;12.980;2022-12-07T11:32:15;5.67;;;5.17;;
29200;SDS011;16244;51.956;12.980;2022-12-07T11:34:49;38.10;;;18.67;;
29200;SDS011;16244;51.956;12.980;2022-12-07T11:37:30;10.30;;;8.00;;
29200;SDS011;16244;51.956;12.980;2022-12-07T11:40:00;8.43;;;7.63;;
29200;SDS011;16244;51.956;12.980;2022-12-07T11:42:30;7.83;;;6.73;;
29200;SDS011;16244;51.956;12.980;2022-12-07T11:45:04;14.70;;;9.77;;
29200;SDS011;16244;51.956;12.980;2022-12-07T11:47:41;7.10;;;5.10;;
29200;SDS011;16244;51.956;12.980;2022-12-07T11:50:26;4.07;;;3.87;;
29200;SDS011;16244;51.956;12.980;2022-12-07T11:53:00;3.07;;;2.87;;
29200;SDS011;16244;51.956;12.980;2022-12-07T11:55:32;3.10;;;2.80;;
29200;SDS011;16244;51.956;12.980;2022-12-07T11:58:13;2.70;;;2.50;;
29200;SDS011;16244;51.956;12.980;2022-12-07T12:00:49;2.83;;;2.63;;
29200;SDS011;16244;51.956;12.980;2022-12-07T12:03:20;3.23;;;2.90;;
29200;SDS011;16244;51.956;12.980;2022-12-07T12:05:55;2.07;;;2.00;;
29200;SDS011;16244;51.956;12.980;2022-12-07T12:08:25;5.53;;;2.30;;
29200;SDS011;16244;51.956;12.980;2022-12-07T12:10:57;1.60;;;1.50;;
29200;SDS011;16244;51.956;12.980;2022-12-07T12:13:36;1.80;;;1.70;;
29200;SDS011;16244;51.956;12.980;2022-12-07T12:16:39;5.37;;;3.20;;
29200;SDS011;16244;51.956;12.980;2022-12-07T12:19:32;6.27;;;3.17;;
29200;SDS011;16244;51.956;12.980;2022-12-07T12:22:04;5.63;;;2.80;;
29200;SDS011;16244;51.956;12.980;2022-12-07T12:24:38;3.00;;;2.00;;
29200;SDS011;16244;51.956;12.980;2022-12-07T12:27:07;1.57;;;1.47;;
29200;SDS011;16244;51.956;12.980;2022-12-07T12:29:37;2.23;;;2.13;;
29200;SDS011;16244;51.956;12.980;2022-12-07T12:32:10;1.83;;;1.73;;
29200;SDS011;16244;51.956;12.980;2022-12-07T12:34:42;4.00;;;2.53;;
29200;SDS011;16244;51.956;12.980;2022-12-07T12:37:41;13.20;;;1.70;;
29200;SDS011;16244;51.956;12.980;2022-12-07T12:40:39;1.60;;;1.60;;
29200;SDS011;16244;51.956;12.980;2022-12-07T12:46:36;1.40;;;1.30;;
29200;SDS011;16244;51.956;12.980;2022-12-07T12:49:30;5.90;;;1.40;;
29200;SDS011;16244;51.956;12.980;2022-12-07T12:55:15;2.03;;;1.80;;
29200;SDS011;16244;51.956;12.980;2022-12-07T12:57:48;2.93;;;1.60;;
29200;SDS011;16244;51.956;12.980;2022-12-07T13:03:54;2.43;;;2.33;;
29200;SDS011;16244;51.956;12.980;2022-12-07T13:06:32;3.43;;;1.67;;
29200;SDS011;16244;51.956;12.980;2022-12-07T13:09:03;3.93;;;2.00;;
29200;SDS011;16244;51.956;12.980;2022-12-07T13:11:32;2.00;;;1.90;;
29200;SDS011;16244;51.956;12.980;2022-12-07T13:23:10;4.33;;;1.83;;
29200;SDS011;16244;51.956;12.980;2022-12-07T13:25:41;3.23;;;3.03;;
29200;SDS011;16244;51.956;12.980;2022-12-07T13:28:15;6.50;;;2.30;;
29200;SDS011;16244;51.956;12.980;2022-12-07T13:30:49;2.50;;;2.10;;
29200;SDS011;16244;51.956;12.980;2022-12-07T13:33:37;3.73;;;2.00;;
29200;SDS011;16244;51.956;12.980;2022-12-07T13:36:04;2.73;;;2.53;;
29200;SDS011;16244;51.956;12.980;2022-12-07T13:38:47;7.17;;;2.13;;
29200;SDS011;16244;51.956;12.980;2022-12-07T13:41:17;2.53;;;2.03;;
29200;SDS011;16244;51.956;12.980;2022-12-07T13:43:48;1.70;;;1.60;;
29200;SDS011;16244;51.956;12.980;2022-12-07T13:46:17;2.30;;;1.47;;
29200;SDS011;16244;51.956;12.980;2022-12-07T13:48:51;2.27;;;2.07;;
29200;SDS011;16244;51.956;12.980;2022-12-07T13:51:21;2.47;;;2.30;;
29200;SDS011;16244;51.956;12.980;2022-12-07T13:53:51;4.83;;;1.77;;
29200;SDS011;16244;51.956;12.980;2022-12-07T13:56:25;2.50;;;1.33;;
29200;SDS011;16244;51.956;12.980;2022-12-07T13:58:54;2.70;;;1.40;;
29200;SDS011;16244;51.956;12.980;2022-12-07T14:01:22;6.10;;;5.13;;
29200;SDS011;16244;51.956;12.980;2022-12-07T14:03:51;5.50;;;2.70;;
29200;SDS011;16244;51.956;12.980;2022-12-07T14:06:23;4.00;;;1.83;;
29200;SDS011;16244;51.956;12.980;2022-12-07T14:09:08;2.40;;;1.53;;
29200;SDS011;16244;51.956;12.980;2022-12-07T14:11:43;1.67;;;1.57;;
29200;SDS011;16244;51.956;12.980;2022-12-07T14:14:11;5.03;;;1.97;;
29200;SDS011;16244;51.956;12.980;2022-12-07T14:16:42;8.23;;;2.27;;
29200;SDS011;16244;51.956;12.980;2022-12-07T14:22:24;1.43;;;1.43;;
29200;SDS011;16244;51.956;12.980;2022-12-07T14:25:00;4.13;;;2.00;;
29200;SDS011;16244;51.956;12.980;2022-12-07T14:27:38;5.70;;;1.30;;
29200;SDS011;16244;51.956;12.980;2022-12-07T14:30:05;10.33;;;2.23;;
29200;SDS011;16244;51.956;12.980;2022-12-07T14:32:41;4.20;;;1.77;;
29200;SDS011;16244;51.956;12.980;2022-12-07T14:35:14;2.20;;;2.00;;
29200;SDS011;16244;51.956;12.980;2022-12-07T14:37:44;3.60;;;2.00;;
29200;SDS011;16244;51.956;12.980;2022-12-07T14:40:13;5.27;;;2.50;;
29200;SDS011;16244;51.956;12.980;2022-12-07T14:42:41;2.17;;;1.93;;
29200;SDS011;16244;51.956;12.980;2022-12-07T14:45:13;6.50;;;2.40;;
29200;SDS011;16244;51.956;12.980;2022-12-07T14:47:42;2.93;;;2.10;;
29200;SDS011;16244;51.956;12.980;2022-12-07T14:50:11;4.27;;;3.10;;
29200;SDS011;16244;51.956;12.980;2022-12-07T14:52:39;4.47;;;3.13;;
29200;SDS011;16244;51.956;12.980;2022-12-07T14:55:14;5.30;;;5.00;;
29200;SDS011;16244;51.956;12.980;2022-12-07T14:57:44;3.60;;;3.27;;
29200;SDS011;16244;51.956;12.980;2022-12-07T15:00:13;2.63;;;2.53;;
29200;SDS011;16244;51.956;12.980;2022-12-07T15:02:42;4.20;;;2.50;;
29200;SDS011;16244;51.956;12.980;2022-12-07T15:05:10;2.90;;;2.60;;
29200;SDS011;16244;51.956;12.980;2022-12-07T15:07:38;8.80;;;3.27;;
29200;SDS011;16244;51.956;12.980;2022-12-07T15:10:08;4.50;;;2.20;;
29200;SDS011;16244;51.956;12.980;2022-12-07T15:12:43;7.40;;;2.47;;